Terminal Aerodrome Forecast
Issued by NWS

Current Version | Previous Version | Text Only | Print | Product List | Glossary Off
Versions: 1 2 3 4 5 6 7 8 9 10 11 12 13 14

790
FTUS41 KPBZ 150539
TAFMGW
TAF
KMGW 150539Z 1506/1606 00000KT P6SM FEW016 OVC035
     FM151500 23006KT P6SM BKN040=

USA.gov is the U.S. government's official web portal to all federal, state and local government web resources and services.